sensor_id;sensor_type;location;lat;lon;timestamp;P1;durP1;ratioP1;P2;durP2;ratioP2
76733;SDS011;65660;53.288;14.666;2024-02-21T00:01:37;19.50;;;5.53;;
76733;SDS011;65660;53.288;14.666;2024-02-21T00:06:37;19.37;;;5.97;;
76733;SDS011;65660;53.288;14.666;2024-02-21T00:11:38;20.07;;;6.10;;
76733;SDS011;65660;53.288;14.666;2024-02-21T00:16:39;12.63;;;4.90;;
76733;SDS011;65660;53.288;14.666;2024-02-21T00:21:40;10.00;;;4.50;;
76733;SDS011;65660;53.288;14.666;2024-02-21T00:26:40;13.30;;;5.10;;
76733;SDS011;65660;53.288;14.666;2024-02-21T00:31:41;11.77;;;4.57;;
76733;SDS011;65660;53.288;14.666;2024-02-21T00:36:41;13.73;;;5.23;;
76733;SDS011;65660;53.288;14.666;2024-02-21T00:41:42;16.70;;;5.90;;
76733;SDS011;65660;53.288;14.666;2024-02-21T00:46:42;10.90;;;4.50;;
76733;SDS011;65660;53.288;14.666;2024-02-21T00:51:45;12.87;;;4.60;;
76733;SDS011;65660;53.288;14.666;2024-02-21T00:56:46;17.50;;;5.10;;
76733;SDS011;65660;53.288;14.666;2024-02-21T01:01:46;13.23;;;4.97;;
76733;SDS011;65660;53.288;14.666;2024-02-21T01:06:47;9.00;;;4.80;;
76733;SDS011;65660;53.288;14.666;2024-02-21T01:11:47;15.80;;;5.70;;
76733;SDS011;65660;53.288;14.666;2024-02-21T01:16:48;17.37;;;6.47;;
76733;SDS011;65660;53.288;14.666;2024-02-21T01:21:48;18.80;;;7.73;;
76733;SDS011;65660;53.288;14.666;2024-02-21T01:26:49;17.83;;;7.30;;
76733;SDS011;65660;53.288;14.666;2024-02-21T01:31:50;9.90;;;4.10;;
76733;SDS011;65660;53.288;14.666;2024-02-21T01:36:50;10.13;;;4.27;;
76733;SDS011;65660;53.288;14.666;2024-02-21T01:41:51;23.23;;;8.17;;
76733;SDS011;65660;53.288;14.666;2024-02-21T01:46:52;22.57;;;7.87;;
76733;SDS011;65660;53.288;14.666;2024-02-21T01:51:53;18.67;;;9.13;;
76733;SDS011;65660;53.288;14.666;2024-02-21T01:56:54;21.03;;;8.47;;
76733;SDS011;65660;53.288;14.666;2024-02-21T02:01:55;21.53;;;7.63;;
76733;SDS011;65660;53.288;14.666;2024-02-21T02:06:56;31.87;;;10.07;;
76733;SDS011;65660;53.288;14.666;2024-02-21T02:11:58;20.53;;;8.77;;
76733;SDS011;65660;53.288;14.666;2024-02-21T02:16:58;26.47;;;9.17;;
76733;SDS011;65660;53.288;14.666;2024-02-21T02:22:13;24.57;;;9.10;;
76733;SDS011;65660;53.288;14.666;2024-02-21T02:27:15;29.10;;;10.83;;
76733;SDS011;65660;53.288;14.666;2024-02-21T02:32:16;24.00;;;9.43;;
76733;SDS011;65660;53.288;14.666;2024-02-21T02:37:16;22.83;;;10.07;;
76733;SDS011;65660;53.288;14.666;2024-02-21T02:42:17;26.40;;;10.00;;
76733;SDS011;65660;53.288;14.666;2024-02-21T02:47:17;22.77;;;10.87;;
76733;SDS011;65660;53.288;14.666;2024-02-21T02:52:18;27.87;;;10.47;;
76733;SDS011;65660;53.288;14.666;2024-02-21T02:57:18;30.70;;;10.67;;
76733;SDS011;65660;53.288;14.666;2024-02-21T03:02:19;28.00;;;10.57;;
76733;SDS011;65660;53.288;14.666;2024-02-21T03:07:19;25.93;;;10.97;;
76733;SDS011;65660;53.288;14.666;2024-02-21T03:12:20;28.20;;;11.23;;
76733;SDS011;65660;53.288;14.666;2024-02-21T03:17:21;31.90;;;12.17;;
76733;SDS011;65660;53.288;14.666;2024-02-21T03:22:22;27.17;;;10.40;;
76733;SDS011;65660;53.288;14.666;2024-02-21T03:27:22;28.47;;;11.10;;
76733;SDS011;65660;53.288;14.666;2024-02-21T03:32:23;32.07;;;10.57;;
76733;SDS011;65660;53.288;14.666;2024-02-21T03:37:23;30.60;;;10.50;;
76733;SDS011;65660;53.288;14.666;2024-02-21T03:42:24;31.00;;;10.70;;
76733;SDS011;65660;53.288;14.666;2024-02-21T03:47:24;26.40;;;10.97;;
76733;SDS011;65660;53.288;14.666;2024-02-21T03:52:25;32.77;;;11.50;;
76733;SDS011;65660;53.288;14.666;2024-02-21T03:57:25;25.70;;;10.00;;
76733;SDS011;65660;53.288;14.666;2024-02-21T04:02:26;29.77;;;11.40;;
76733;SDS011;65660;53.288;14.666;2024-02-21T04:07:26;27.90;;;10.23;;
76733;SDS011;65660;53.288;14.666;2024-02-21T04:12:27;31.00;;;11.87;;
76733;SDS011;65660;53.288;14.666;2024-02-21T04:17:27;32.57;;;11.23;;
76733;SDS011;65660;53.288;14.666;2024-02-21T04:22:28;22.33;;;10.03;;
76733;SDS011;65660;53.288;14.666;2024-02-21T04:27:28;27.03;;;9.83;;
76733;SDS011;65660;53.288;14.666;2024-02-21T04:32:29;29.57;;;11.27;;
76733;SDS011;65660;53.288;14.666;2024-02-21T04:37:29;34.97;;;10.43;;
76733;SDS011;65660;53.288;14.666;2024-02-21T04:42:30;25.83;;;10.17;;
76733;SDS011;65660;53.288;14.666;2024-02-21T04:47:30;26.40;;;9.50;;
76733;SDS011;65660;53.288;14.666;2024-02-21T04:52:31;26.00;;;9.60;;
76733;SDS011;65660;53.288;14.666;2024-02-21T04:57:31;25.00;;;9.70;;
76733;SDS011;65660;53.288;14.666;2024-02-21T05:02:32;22.57;;;9.73;;
76733;SDS011;65660;53.288;14.666;2024-02-21T05:07:32;23.17;;;9.60;;
76733;SDS011;65660;53.288;14.666;2024-02-21T05:12:35;23.30;;;9.53;;
76733;SDS011;65660;53.288;14.666;2024-02-21T05:17:35;20.10;;;8.80;;
76733;SDS011;65660;53.288;14.666;2024-02-21T05:22:36;23.10;;;10.03;;
76733;SDS011;65660;53.288;14.666;2024-02-21T05:27:36;22.60;;;9.37;;
76733;SDS011;65660;53.288;14.666;2024-02-21T05:32:37;22.47;;;8.93;;
76733;SDS011;65660;53.288;14.666;2024-02-21T05:37:37;19.87;;;9.03;;
76733;SDS011;65660;53.288;14.666;2024-02-21T05:42:38;22.07;;;8.93;;
76733;SDS011;65660;53.288;14.666;2024-02-21T05:47:38;23.57;;;8.57;;
76733;SDS011;65660;53.288;14.666;2024-02-21T05:52:39;21.87;;;9.37;;
76733;SDS011;65660;53.288;14.666;2024-02-21T05:57:39;23.53;;;9.87;;
76733;SDS011;65660;53.288;14.666;2024-02-21T06:02:40;27.10;;;11.30;;
76733;SDS011;65660;53.288;14.666;2024-02-21T06:07:41;26.73;;;11.80;;
76733;SDS011;65660;53.288;14.666;2024-02-21T06:12:41;25.87;;;11.23;;
76733;SDS011;65660;53.288;14.666;2024-02-21T06:17:42;36.33;;;15.60;;
76733;SDS011;65660;53.288;14.666;2024-02-21T06:22:42;25.83;;;11.57;;
76733;SDS011;65660;53.288;14.666;2024-02-21T06:27:43;30.87;;;12.50;;
76733;SDS011;65660;53.288;14.666;2024-02-21T06:32:43;28.00;;;12.23;;
76733;SDS011;65660;53.288;14.666;2024-02-21T06:37:44;27.90;;;12.37;;
76733;SDS011;65660;53.288;14.666;2024-02-21T06:42:44;27.17;;;12.47;;
76733;SDS011;65660;53.288;14.666;2024-02-21T06:47:45;32.90;;;13.67;;
76733;SDS011;65660;53.288;14.666;2024-02-21T06:52:45;32.03;;;14.20;;
76733;SDS011;65660;53.288;14.666;2024-02-21T06:57:46;30.60;;;13.53;;
76733;SDS011;65660;53.288;14.666;2024-02-21T07:02:47;37.33;;;14.67;;
76733;SDS011;65660;53.288;14.666;2024-02-21T07:07:48;32.27;;;14.10;;
76733;SDS011;65660;53.288;14.666;2024-02-21T07:12:49;32.83;;;13.77;;
76733;SDS011;65660;53.288;14.666;2024-02-21T07:17:49;35.37;;;14.07;;
76733;SDS011;65660;53.288;14.666;2024-02-21T07:22:50;39.13;;;14.73;;
76733;SDS011;65660;53.288;14.666;2024-02-21T07:27:50;37.33;;;16.50;;
76733;SDS011;65660;53.288;14.666;2024-02-21T07:32:51;42.57;;;15.73;;
76733;SDS011;65660;53.288;14.666;2024-02-21T07:37:51;38.23;;;16.17;;
76733;SDS011;65660;53.288;14.666;2024-02-21T07:42:52;40.83;;;16.27;;
76733;SDS011;65660;53.288;14.666;2024-02-21T07:47:52;41.03;;;16.27;;
76733;SDS011;65660;53.288;14.666;2024-02-21T07:52:53;39.80;;;16.20;;
76733;SDS011;65660;53.288;14.666;2024-02-21T07:57:54;42.43;;;15.40;;
76733;SDS011;65660;53.288;14.666;2024-02-21T08:02:54;43.23;;;17.20;;
76733;SDS011;65660;53.288;14.666;2024-02-21T08:07:55;52.53;;;16.73;;
76733;SDS011;65660;53.288;14.666;2024-02-21T08:12:55;44.83;;;16.00;;
76733;SDS011;65660;53.288;14.666;2024-02-21T08:17:56;49.97;;;17.23;;
76733;SDS011;65660;53.288;14.666;2024-02-21T08:22:56;40.07;;;15.87;;
76733;SDS011;65660;53.288;14.666;2024-02-21T08:27:58;38.50;;;15.63;;
76733;SDS011;65660;53.288;14.666;2024-02-21T08:32:59;37.77;;;15.03;;
76733;SDS011;65660;53.288;14.666;2024-02-21T08:37:59;45.50;;;16.00;;
76733;SDS011;65660;53.288;14.666;2024-02-21T08:43:00;35.47;;;14.70;;
76733;SDS011;65660;53.288;14.666;2024-02-21T08:48:01;37.30;;;17.40;;
76733;SDS011;65660;53.288;14.666;2024-02-21T08:53:02;52.17;;;18.40;;
76733;SDS011;65660;53.288;14.666;2024-02-21T08:58:02;29.97;;;14.13;;
76733;SDS011;65660;53.288;14.666;2024-02-21T09:03:03;31.87;;;14.60;;
76733;SDS011;65660;53.288;14.666;2024-02-21T09:08:04;39.80;;;15.37;;
76733;SDS011;65660;53.288;14.666;2024-02-21T09:13:05;32.60;;;13.63;;
76733;SDS011;65660;53.288;14.666;2024-02-21T09:18:05;33.43;;;14.33;;
76733;SDS011;65660;53.288;14.666;2024-02-21T09:23:06;32.37;;;14.73;;
76733;SDS011;65660;53.288;14.666;2024-02-21T09:28:06;39.10;;;16.10;;
76733;SDS011;65660;53.288;14.666;2024-02-21T09:33:07;30.57;;;13.53;;
76733;SDS011;65660;53.288;14.666;2024-02-21T09:38:07;27.93;;;13.60;;
76733;SDS011;65660;53.288;14.666;2024-02-21T09:43:08;33.30;;;14.30;;
76733;SDS011;65660;53.288;14.666;2024-02-21T09:53:15;29.63;;;13.83;;
76733;SDS011;65660;53.288;14.666;2024-02-21T09:58:16;26.23;;;13.50;;
76733;SDS011;65660;53.288;14.666;2024-02-21T10:03:16;32.23;;;14.57;;
76733;SDS011;65660;53.288;14.666;2024-02-21T10:08:17;29.80;;;12.80;;
76733;SDS011;65660;53.288;14.666;2024-02-21T10:13:23;24.57;;;11.70;;
76733;SDS011;65660;53.288;14.666;2024-02-21T10:18:28;23.00;;;11.33;;
76733;SDS011;65660;53.288;14.666;2024-02-21T10:23:28;25.47;;;11.57;;
76733;SDS011;65660;53.288;14.666;2024-02-21T10:28:29;22.97;;;10.80;;
76733;SDS011;65660;53.288;14.666;2024-02-21T10:33:29;23.43;;;10.23;;
76733;SDS011;65660;53.288;14.666;2024-02-21T10:38:30;20.43;;;9.40;;
76733;SDS011;65660;53.288;14.666;2024-02-21T10:43:30;18.70;;;9.77;;
76733;SDS011;65660;53.288;14.666;2024-02-21T10:48:44;19.37;;;10.43;;
76733;SDS011;65660;53.288;14.666;2024-02-21T10:54:10;17.60;;;9.40;;
76733;SDS011;65660;53.288;14.666;2024-02-21T10:59:24;18.03;;;9.40;;
76733;SDS011;65660;53.288;14.666;2024-02-21T11:04:25;19.67;;;9.43;;
76733;SDS011;65660;53.288;14.666;2024-02-21T11:14:52;15.17;;;9.33;;
76733;SDS011;65660;53.288;14.666;2024-02-21T11:19:53;15.90;;;9.40;;
76733;SDS011;65660;53.288;14.666;2024-02-21T11:24:53;20.57;;;8.97;;
76733;SDS011;65660;53.288;14.666;2024-02-21T11:29:55;15.30;;;8.63;;
76733;SDS011;65660;53.288;14.666;2024-02-21T11:35:00;15.27;;;8.70;;
76733;SDS011;65660;53.288;14.666;2024-02-21T11:40:01;15.80;;;8.67;;
76733;SDS011;65660;53.288;14.666;2024-02-21T11:45:02;13.83;;;8.00;;
76733;SDS011;65660;53.288;14.666;2024-02-21T11:50:03;13.30;;;8.33;;
76733;SDS011;65660;53.288;14.666;2024-02-21T11:55:05;13.37;;;7.53;;
76733;SDS011;65660;53.288;14.666;2024-02-21T12:00:13;12.57;;;7.90;;
76733;SDS011;65660;53.288;14.666;2024-02-21T12:05:18;12.53;;;7.30;;
76733;SDS011;65660;53.288;14.666;2024-02-21T12:10:19;12.27;;;7.47;;
76733;SDS011;65660;53.288;14.666;2024-02-21T12:15:20;11.37;;;7.23;;
76733;SDS011;65660;53.288;14.666;2024-02-21T12:20:20;10.77;;;7.27;;
76733;SDS011;65660;53.288;14.666;2024-02-21T12:25:21;10.47;;;6.73;;
76733;SDS011;65660;53.288;14.666;2024-02-21T12:30:22;9.07;;;7.13;;
76733;SDS011;65660;53.288;14.666;2024-02-21T12:35:23;10.60;;;7.60;;
76733;SDS011;65660;53.288;14.666;2024-02-21T12:40:23;9.00;;;6.20;;
76733;SDS011;65660;53.288;14.666;2024-02-21T12:45:24;8.70;;;6.10;;
76733;SDS011;65660;53.288;14.666;2024-02-21T12:50:24;9.73;;;6.30;;
76733;SDS011;65660;53.288;14.666;2024-02-21T12:55:25;7.97;;;5.50;;
76733;SDS011;65660;53.288;14.666;2024-02-21T13:00:26;7.57;;;5.50;;
76733;SDS011;65660;53.288;14.666;2024-02-21T13:05:26;6.97;;;6.00;;
76733;SDS011;65660;53.288;14.666;2024-02-21T13:10:27;8.00;;;5.37;;
76733;SDS011;65660;53.288;14.666;2024-02-21T13:15:27;8.70;;;6.27;;
76733;SDS011;65660;53.288;14.666;2024-02-21T13:20:28;9.90;;;6.20;;
76733;SDS011;65660;53.288;14.666;2024-02-21T13:25:28;8.33;;;6.27;;
76733;SDS011;65660;53.288;14.666;2024-02-21T13:30:29;9.43;;;6.43;;
76733;SDS011;65660;53.288;14.666;2024-02-21T13:35:30;7.50;;;5.90;;
76733;SDS011;65660;53.288;14.666;2024-02-21T13:40:30;7.77;;;5.77;;
76733;SDS011;65660;53.288;14.666;2024-02-21T13:45:31;8.40;;;6.20;;
76733;SDS011;65660;53.288;14.666;2024-02-21T13:50:32;7.47;;;6.20;;
76733;SDS011;65660;53.288;14.666;2024-02-21T13:55:32;7.80;;;7.10;;
76733;SDS011;65660;53.288;14.666;2024-02-21T14:00:33;7.43;;;6.37;;
76733;SDS011;65660;53.288;14.666;2024-02-21T14:05:33;7.23;;;6.37;;
76733;SDS011;65660;53.288;14.666;2024-02-21T14:10:34;6.70;;;6.10;;
76733;SDS011;65660;53.288;14.666;2024-02-21T14:15:34;6.37;;;5.77;;
76733;SDS011;65660;53.288;14.666;2024-02-21T14:20:35;7.00;;;6.27;;
76733;SDS011;65660;53.288;14.666;2024-02-21T14:25:35;7.90;;;5.73;;
76733;SDS011;65660;53.288;14.666;2024-02-21T14:30:36;8.60;;;7.03;;
76733;SDS011;65660;53.288;14.666;2024-02-21T14:35:36;9.43;;;7.47;;
76733;SDS011;65660;53.288;14.666;2024-02-21T14:40:37;8.13;;;6.33;;
76733;SDS011;65660;53.288;14.666;2024-02-21T14:45:38;10.43;;;7.03;;
76733;SDS011;65660;53.288;14.666;2024-02-21T14:50:38;9.37;;;7.60;;
76733;SDS011;65660;53.288;14.666;2024-02-21T14:55:39;8.63;;;6.80;;
76733;SDS011;65660;53.288;14.666;2024-02-21T15:00:39;12.40;;;8.47;;
76733;SDS011;65660;53.288;14.666;2024-02-21T15:05:40;8.67;;;6.90;;
76733;SDS011;65660;53.288;14.666;2024-02-21T15:10:40;9.87;;;6.90;;
76733;SDS011;65660;53.288;14.666;2024-02-21T15:15:40;11.30;;;8.60;;
76733;SDS011;65660;53.288;14.666;2024-02-21T15:20:41;9.87;;;7.60;;
76733;SDS011;65660;53.288;14.666;2024-02-21T15:25:41;8.80;;;7.03;;
76733;SDS011;65660;53.288;14.666;2024-02-21T15:30:42;7.03;;;6.33;;
76733;SDS011;65660;53.288;14.666;2024-02-21T15:35:42;9.93;;;6.93;;
76733;SDS011;65660;53.288;14.666;2024-02-21T15:40:43;10.90;;;7.37;;
76733;SDS011;65660;53.288;14.666;2024-02-21T15:45:43;11.03;;;8.33;;
76733;SDS011;65660;53.288;14.666;2024-02-21T15:50:44;10.73;;;8.07;;
76733;SDS011;65660;53.288;14.666;2024-02-21T15:55:44;10.10;;;8.43;;
76733;SDS011;65660;53.288;14.666;2024-02-21T16:00:45;10.43;;;8.10;;
76733;SDS011;65660;53.288;14.666;2024-02-21T16:05:45;9.20;;;7.40;;
76733;SDS011;65660;53.288;14.666;2024-02-21T16:10:46;9.20;;;8.00;;
76733;SDS011;65660;53.288;14.666;2024-02-21T16:15:47;8.83;;;7.87;;
76733;SDS011;65660;53.288;14.666;2024-02-21T16:20:47;11.60;;;9.13;;
76733;SDS011;65660;53.288;14.666;2024-02-21T16:25:47;11.33;;;8.17;;
76733;SDS011;65660;53.288;14.666;2024-02-21T16:30:48;12.63;;;8.20;;
76733;SDS011;65660;53.288;14.666;2024-02-21T16:35:48;13.10;;;8.17;;
76733;SDS011;65660;53.288;14.666;2024-02-21T16:40:49;9.40;;;7.47;;
76733;SDS011;65660;53.288;14.666;2024-02-21T16:45:49;9.63;;;6.63;;
76733;SDS011;65660;53.288;14.666;2024-02-21T16:50:50;10.13;;;6.50;;
76733;SDS011;65660;53.288;14.666;2024-02-21T16:55:51;11.40;;;6.27;;
76733;SDS011;65660;53.288;14.666;2024-02-21T17:00:52;10.80;;;7.30;;
76733;SDS011;65660;53.288;14.666;2024-02-21T17:05:52;10.17;;;7.23;;
76733;SDS011;65660;53.288;14.666;2024-02-21T17:10:53;9.57;;;6.53;;
76733;SDS011;65660;53.288;14.666;2024-02-21T17:15:53;10.00;;;6.40;;
76733;SDS011;65660;53.288;14.666;2024-02-21T17:20:54;9.37;;;5.80;;
76733;SDS011;65660;53.288;14.666;2024-02-21T17:25:54;10.23;;;5.70;;
76733;SDS011;65660;53.288;14.666;2024-02-21T17:30:55;8.17;;;5.23;;
76733;SDS011;65660;53.288;14.666;2024-02-21T17:35:55;7.80;;;5.97;;
76733;SDS011;65660;53.288;14.666;2024-02-21T17:40:56;8.60;;;5.87;;
76733;SDS011;65660;53.288;14.666;2024-02-21T17:45:59;8.60;;;6.27;;
76733;SDS011;65660;53.288;14.666;2024-02-21T17:51:00;10.90;;;6.80;;
76733;SDS011;65660;53.288;14.666;2024-02-21T17:56:00;11.07;;;6.37;;
76733;SDS011;65660;53.288;14.666;2024-02-21T18:01:01;11.43;;;7.97;;
76733;SDS011;65660;53.288;14.666;2024-02-21T18:06:02;12.10;;;7.20;;
76733;SDS011;65660;53.288;14.666;2024-02-21T18:11:02;9.73;;;6.80;;
76733;SDS011;65660;53.288;14.666;2024-02-21T18:16:03;10.20;;;6.93;;
76733;SDS011;65660;53.288;14.666;2024-02-21T18:21:04;10.73;;;6.30;;
76733;SDS011;65660;53.288;14.666;2024-02-21T18:26:05;16.30;;;8.53;;
76733;SDS011;65660;53.288;14.666;2024-02-21T18:31:05;11.17;;;7.20;;
76733;SDS011;65660;53.288;14.666;2024-02-21T18:36:06;9.90;;;5.50;;
76733;SDS011;65660;53.288;14.666;2024-02-21T18:41:06;5.57;;;4.63;;
76733;SDS011;65660;53.288;14.666;2024-02-21T18:46:07;7.83;;;5.23;;
76733;SDS011;65660;53.288;14.666;2024-02-21T18:51:08;8.67;;;5.40;;
76733;SDS011;65660;53.288;14.666;2024-02-21T18:56:08;8.03;;;5.10;;
76733;SDS011;65660;53.288;14.666;2024-02-21T19:01:09;11.03;;;5.77;;
76733;SDS011;65660;53.288;14.666;2024-02-21T19:06:09;12.33;;;6.17;;
76733;SDS011;65660;53.288;14.666;2024-02-21T19:11:10;12.83;;;7.17;;
76733;SDS011;65660;53.288;14.666;2024-02-21T19:16:13;13.60;;;10.03;;
76733;SDS011;65660;53.288;14.666;2024-02-21T19:21:14;16.77;;;9.57;;
76733;SDS011;65660;53.288;14.666;2024-02-21T19:26:15;15.53;;;9.00;;
76733;SDS011;65660;53.288;14.666;2024-02-21T19:31:15;15.73;;;8.50;;
76733;SDS011;65660;53.288;14.666;2024-02-21T19:36:16;14.73;;;8.00;;
76733;SDS011;65660;53.288;14.666;2024-02-21T19:41:17;10.53;;;6.87;;
76733;SDS011;65660;53.288;14.666;2024-02-21T19:46:17;13.03;;;6.87;;
76733;SDS011;65660;53.288;14.666;2024-02-21T19:51:18;8.77;;;5.90;;
76733;SDS011;65660;53.288;14.666;2024-02-21T19:56:19;11.83;;;5.50;;
76733;SDS011;65660;53.288;14.666;2024-02-21T20:01:19;11.40;;;5.80;;
76733;SDS011;65660;53.288;14.666;2024-02-21T20:06:20;9.37;;;5.50;;
76733;SDS011;65660;53.288;14.666;2024-02-21T20:11:20;10.53;;;5.57;;
76733;SDS011;65660;53.288;14.666;2024-02-21T20:16:21;9.80;;;6.50;;
76733;SDS011;65660;53.288;14.666;2024-02-21T20:21:21;8.03;;;5.03;;
76733;SDS011;65660;53.288;14.666;2024-02-21T20:26:23;10.50;;;5.10;;
76733;SDS011;65660;53.288;14.666;2024-02-21T20:31:24;12.83;;;6.47;;
76733;SDS011;65660;53.288;14.666;2024-02-21T20:36:24;9.33;;;7.33;;
76733;SDS011;65660;53.288;14.666;2024-02-21T20:41:24;11.90;;;5.60;;
76733;SDS011;65660;53.288;14.666;2024-02-21T20:46:25;11.50;;;6.50;;
76733;SDS011;65660;53.288;14.666;2024-02-21T20:51:26;10.93;;;6.43;;
76733;SDS011;65660;53.288;14.666;2024-02-21T20:56:26;10.43;;;7.37;;
76733;SDS011;65660;53.288;14.666;2024-02-21T21:01:27;11.90;;;6.90;;
76733;SDS011;65660;53.288;14.666;2024-02-21T21:06:27;8.93;;;6.33;;
76733;SDS011;65660;53.288;14.666;2024-02-21T21:11:28;8.03;;;6.03;;
76733;SDS011;65660;53.288;14.666;2024-02-21T21:16:28;11.83;;;5.90;;
76733;SDS011;65660;53.288;14.666;2024-02-21T21:21:29;8.97;;;5.50;;
76733;SDS011;65660;53.288;14.666;2024-02-21T21:26:29;11.23;;;6.60;;
76733;SDS011;65660;53.288;14.666;2024-02-21T21:31:30;12.93;;;6.27;;
76733;SDS011;65660;53.288;14.666;2024-02-21T21:36:30;12.03;;;6.47;;
76733;SDS011;65660;53.288;14.666;2024-02-21T21:41:31;11.53;;;7.00;;
76733;SDS011;65660;53.288;14.666;2024-02-21T21:46:31;10.97;;;6.03;;
76733;SDS011;65660;53.288;14.666;2024-02-21T21:51:32;11.77;;;6.60;;
76733;SDS011;65660;53.288;14.666;2024-02-21T21:56:32;9.13;;;5.87;;
76733;SDS011;65660;53.288;14.666;2024-02-21T22:01:33;11.00;;;6.90;;
76733;SDS011;65660;53.288;14.666;2024-02-21T22:06:33;9.33;;;6.83;;
76733;SDS011;65660;53.288;14.666;2024-02-21T22:11:34;9.93;;;6.27;;
76733;SDS011;65660;53.288;14.666;2024-02-21T22:16:34;9.87;;;7.07;;
76733;SDS011;65660;53.288;14.666;2024-02-21T22:21:35;14.03;;;7.20;;
76733;SDS011;65660;53.288;14.666;2024-02-21T22:26:36;10.87;;;6.57;;
76733;SDS011;65660;53.288;14.666;2024-02-21T22:31:37;14.13;;;6.77;;
76733;SDS011;65660;53.288;14.666;2024-02-21T22:36:38;11.97;;;7.20;;
76733;SDS011;65660;53.288;14.666;2024-02-21T22:41:38;14.67;;;7.90;;
76733;SDS011;65660;53.288;14.666;2024-02-21T22:46:39;14.03;;;7.20;;
76733;SDS011;65660;53.288;14.666;2024-02-21T22:51:39;11.67;;;6.93;;
76733;SDS011;65660;53.288;14.666;2024-02-21T22:56:40;17.50;;;7.63;;
76733;SDS011;65660;53.288;14.666;2024-02-21T23:01:40;14.37;;;7.13;;
76733;SDS011;65660;53.288;14.666;2024-02-21T23:06:41;12.67;;;6.60;;
76733;SDS011;65660;53.288;14.666;2024-02-21T23:11:41;10.07;;;6.70;;
76733;SDS011;65660;53.288;14.666;2024-02-21T23:16:42;11.00;;;6.87;;
76733;SDS011;65660;53.288;14.666;2024-02-21T23:21:43;11.57;;;6.37;;
76733;SDS011;65660;53.288;14.666;2024-02-21T23:26:44;12.80;;;6.77;;
76733;SDS011;65660;53.288;14.666;2024-02-21T23:31:44;13.67;;;6.93;;
76733;SDS011;65660;53.288;14.666;2024-02-21T23:36:45;13.20;;;6.90;;
76733;SDS011;65660;53.288;14.666;2024-02-21T23:41:45;13.70;;;6.93;;
76733;SDS011;65660;53.288;14.666;2024-02-21T23:46:46;12.20;;;7.60;;
76733;SDS011;65660;53.288;14.666;2024-02-21T23:51:46;13.70;;;6.70;;
76733;SDS011;65660;53.288;14.666;2024-02-21T23:56:47;12.13;;;7.57;;
